Time;durP1;ratioP1;P1;durP2;ratioP2;P2;SDS_P1;SDS_P2;PMS_P1;PMS_P2;Temp;Humidity;BMP_temperature;BMP_pressure;BME280_temperature;BME280_humidity;BME280_pressure;Samples;Min_cycle;Max_cycle;Signal;HPM_P1;HPM_P2
2022/06/23 00:01:47;;;;;;;5.88;5.38;;;16.40;99.30;;;;;;4938844;28;92336;-70
2022/06/23 00:04:23;;;;;;;7.60;6.80;;;16.40;99.20;;;;;;4937852;28;93156;-71
2022/06/23 00:07:06;;;;;;;7.68;6.38;;;16.40;99.30;;;;;;4937125;28;96913;-70
2022/06/23 00:09:44;;;;;;;8.07;7.38;;;16.30;99.30;;;;;;4938566;28;92548;-70
2022/06/23 00:12:36;;;;;;;7.60;6.63;;;16.20;99.40;;;;;;4938296;28;92406;-71
2022/06/23 00:15:04;;;;;;;6.97;6.28;;;16.30;99.40;;;;;;4936618;28;95330;-70
2022/06/23 00:17:39;;;;;;;8.18;7.43;;;16.20;99.50;;;;;;4920806;28;97876;-70
2022/06/23 00:20:20;;;;;;;9.30;6.72;;;16.20;99.60;;;;;;4938128;28;92914;-70
2022/06/23 00:22:58;;;;;;;7.28;6.57;;;16.10;99.70;;;;;;4938331;28;92450;-70
2022/06/23 00:25:39;;;;;;;7.20;6.50;;;16.10;99.80;;;;;;4937966;28;93349;-70
2022/06/23 00:28:12;;;;;;;8.13;7.45;;;16.10;99.90;;;;;;4937626;28;93224;-70
2022/06/23 00:30:41;;;;;;;8.27;7.57;;;16.00;99.90;;;;;;4938445;28;92453;-70
2022/06/23 00:33:30;;;;;;;8.98;7.63;;;16.00;99.90;;;;;;4936983;28;91715;-70
2022/06/23 00:35:58;;;;;;;8.98;7.47;;;16.00;99.90;;;;;;4938046;28;93273;-70
2022/06/23 00:38:36;;;;;;;9.02;6.75;;;15.90;99.90;;;;;;4937562;28;92778;-71
2022/06/23 00:41:04;;;;;;;7.40;6.03;;;15.90;99.90;;;;;;4937043;28;94856;-70
2022/06/23 00:43:31;;;;;;;7.88;6.53;;;15.90;99.90;;;;;;4937745;28;92414;-70
2022/06/23 00:46:18;;;;;;;9.13;7.57;;;15.90;99.90;;;;;;4920196;28;97915;-70
2022/06/23 00:48:50;;;;;;;7.05;6.35;;;15.90;99.90;;;;;;4936396;28;95451;-70
2022/06/23 00:51:23;;;;;;;9.03;7.20;;;15.80;99.90;;;;;;4936269;28;92964;-70
2022/06/23 00:54:11;;;;;;;8.37;6.60;;;15.80;99.90;;;;;;4938042;28;92375;-70
2022/06/23 00:56:51;;;;;;;7.13;6.43;;;15.80;99.90;;;;;;4936132;28;96634;-70
2022/06/23 00:59:33;;;;;;;8.43;7.55;;;15.80;99.90;;;;;;4937619;28;92991;-70
2022/06/23 01:02:12;;;;;;;8.63;7.72;;;15.70;99.90;;;;;;4936320;28;92969;-70
2022/06/23 01:04:55;;;;;;;10.25;8.18;;;15.70;99.90;;;;;;4937478;28;92377;-71
2022/06/23 01:07:40;;;;;;;10.17;9.00;;;15.60;99.90;;;;;;4934435;28;99328;-70
2022/06/23 01:10:16;;;;;;;8.85;7.60;;;15.60;99.90;;;;;;4937531;28;95513;-70
2022/06/23 01:12:46;;;;;;;8.63;7.53;;;15.50;99.90;;;;;;4937576;28;92861;-71
2022/06/23 01:15:22;;;;;;;8.35;7.47;;;15.50;99.90;;;;;;4937439;28;92408;-71
2022/06/23 01:18:14;;;;;;;7.50;6.72;;;15.40;99.90;;;;;;4937145;28;93243;-70
2022/06/23 01:20:54;;;;;;;9.48;8.57;;;15.40;99.90;;;;;;4937029;28;93003;-71
2022/06/23 01:23:35;;;;;;;8.10;7.30;;;15.40;99.90;;;;;;4937428;28;92441;-70
2022/06/23 01:26:08;;;;;;;8.88;7.78;;;15.40;99.90;;;;;;4937750;28;92221;-71
2022/06/23 01:28:41;;;;;;;8.60;7.60;;;15.30;99.90;;;;;;4936280;28;93341;-70
2022/06/23 01:31:21;;;;;;;9.90;8.07;;;15.30;99.90;;;;;;4936195;28;93064;-70
2022/06/23 01:34:21;;;;;;;9.40;7.80;;;15.30;99.90;;;;;;4934900;28;94952;-70
2022/06/23 01:36:57;;;;;;;8.43;7.25;;;15.30;99.90;;;;;;4937249;28;92358;-70
2022/06/23 01:39:58;;;;;;;9.50;8.50;;;15.20;99.90;;;;;;4936985;28;92421;-70
2022/06/23 01:42:51;;;;;;;9.00;8.10;;;15.20;99.90;;;;;;4886124;28;94173;-71
2022/06/23 01:45:25;;;;;;;10.18;8.70;;;15.20;99.90;;;;;;4930856;28;92953;-70
2022/06/23 01:47:55;;;;;;;10.30;8.68;;;15.20;99.90;;;;;;4919555;28;92578;-71
2022/06/23 01:50:42;;;;;;;10.07;8.70;;;15.10;99.90;;;;;;4935389;28;93309;-70
2022/06/23 01:53:12;;;;;;;10.63;8.13;;;15.10;99.90;;;;;;4937314;28;92764;-70
2022/06/23 01:55:53;;;;;;;9.27;8.35;;;15.00;99.90;;;;;;4936331;28;92407;-70
2022/06/23 01:58:22;;;;;;;9.23;8.00;;;15.10;99.90;;;;;;4936751;28;92426;-70
2022/06/23 02:00:53;;;;;;;10.52;9.35;;;15.00;99.90;;;;;;4918325;28;97457;-70
2022/06/23 02:03:27;;;;;;;11.90;10.30;;;15.00;99.90;;;;;;4934965;28;98088;-70
2022/06/23 02:05:57;;;;;;;11.45;10.13;;;15.00;99.90;;;;;;4936157;28;92951;-70
2022/06/23 02:08:46;;;;;;;11.68;9.15;;;15.00;99.90;;;;;;4935804;28;92414;-70
2022/06/23 02:11:30;;;;;;;10.40;9.30;;;15.00;99.90;;;;;;4936551;28;93132;-70
2022/06/23 02:14:03;;;;;;;10.80;9.57;;;14.90;99.90;;;;;;4936627;28;93102;-70
2022/06/23 02:16:55;;;;;;;10.75;8.32;;;14.90;99.90;;;;;;4936311;28;92469;-70
2022/06/23 02:19:34;;;;;;;10.50;8.27;;;14.80;99.90;;;;;;4936781;28;92241;-70
2022/06/23 02:22:18;;;;;;;11.35;9.40;;;14.80;99.90;;;;;;4936379;28;93373;-70
2022/06/23 02:24:54;;;;;;;12.77;10.73;;;14.80;99.90;;;;;;4934949;28;96216;-70
2022/06/23 02:27:56;;;;;;;12.05;10.77;;;14.70;99.90;;;;;;4934749;28;95259;-70
2022/06/23 02:30:41;;;;;;;12.35;9.48;;;14.80;99.90;;;;;;4935534;28;92565;-70
2022/06/23 02:33:43;;;;;;;14.80;10.50;;;14.70;99.90;;;;;;4934818;28;95674;-70
2022/06/23 02:36:33;;;;;;;14.35;10.85;;;14.70;99.90;;;;;;4917729;28;95585;-70
2022/06/23 02:39:04;;;;;;;12.82;10.57;;;14.70;99.90;;;;;;4938146;28;92507;-70
2022/06/23 02:41:55;;;;;;;12.70;9.63;;;14.60;99.90;;;;;;4939023;28;92493;-70
2022/06/23 02:44:54;;;;;;;15.50;12.43;;;14.70;99.90;;;;;;4939533;28;93272;-70
2022/06/23 02:48:03;;;;;;;14.00;9.88;;;14.70;99.90;;;;;;4938151;28;93244;-70
2022/06/23 02:50:54;;;;;;;15.30;11.48;;;14.70;99.90;;;;;;4939359;28;92607;-70
2022/06/23 02:53:43;;;;;;;18.35;11.30;;;14.60;99.90;;;;;;4938031;28;92379;-70
2022/06/23 02:56:31;;;;;;;15.65;11.73;;;14.70;99.90;;;;;;4936410;28;95736;-70
2022/06/23 02:59:07;;;;;;;18.98;12.48;;;14.70;99.90;;;;;;4938968;28;95587;-70
2022/06/23 03:01:57;;;;;;;15.98;11.55;;;14.70;99.90;;;;;;4938994;28;93067;-70
2022/06/23 03:05:06;;;;;;;15.45;11.45;;;14.70;99.90;;;;;;4938545;28;92985;-70
2022/06/23 03:08:03;;;;;;;15.93;11.27;;;14.70;99.90;;;;;;4902029;28;96340;-70
2022/06/23 03:10:40;;;;;;;15.95;11.48;;;14.70;99.90;;;;;;4936993;28;93125;-70
2022/06/23 03:13:10;;;;;;;16.77;12.68;;;14.70;99.90;;;;;;4938836;28;92428;-70
2022/06/23 03:15:52;;;;;;;16.63;11.95;;;14.70;99.90;;;;;;4937575;28;91802;-70
2022/06/23 03:18:53;;;;;;;15.90;12.00;;;14.80;99.90;;;;;;4938657;28;93372;-70
2022/06/23 03:22:00;;;;;;;16.58;11.65;;;14.80;99.90;;;;;;4936004;28;93163;-70
2022/06/23 03:24:30;;;;;;;17.25;12.48;;;14.80;99.90;;;;;;4907215;28;95026;-70
2022/06/23 03:27:13;;;;;;;15.98;12.15;;;14.70;99.90;;;;;;4937073;28;92651;-70
2022/06/23 03:29:58;;;;;;;18.05;12.38;;;14.80;99.90;;;;;;4936740;28;95772;-70
2022/06/23 03:32:33;;;;;;;18.15;12.65;;;14.80;99.90;;;;;;4938560;28;92864;-70
2022/06/23 03:35:19;;;;;;;14.75;11.27;;;14.80;99.90;;;;;;4938635;28;92447;-70
2022/06/23 03:38:15;;;;;;;18.58;13.75;;;14.80;99.90;;;;;;4938401;28;92487;-70
2022/06/23 03:43:33;;;;;;;17.30;13.07;;;14.80;99.90;;;;;;4938446;28;93022;-70
2022/06/23 03:46:18;;;;;;;18.10;12.90;;;14.80;99.90;;;;;;4938116;28;92997;-70
2022/06/23 03:48:58;;;;;;;16.92;12.40;;;14.90;99.90;;;;;;4938163;28;92976;-70
2022/06/23 03:51:31;;;;;;;17.40;13.02;;;14.90;99.90;;;;;;4934622;28;98346;-70
2022/06/23 03:54:14;;;;;;;14.93;11.75;;;15.00;99.90;;;;;;4938135;28;95483;-70
2022/06/23 03:56:56;;;;;;;14.43;11.70;;;15.30;99.90;;;;;;4936539;28;92507;-70
2022/06/23 03:59:49;;;;;;;14.38;11.73;;;15.90;99.90;;;;;;4938110;28;92422;-70
2022/06/23 04:02:22;;;;;;;13.65;11.85;;;16.40;99.90;;;;;;4936470;28;94238;-70
2022/06/23 04:05:12;;;;;;;15.15;11.85;;;16.70;99.90;;;;;;4935725;28;95754;-70
2022/06/23 04:07:51;;;;;;;14.52;12.90;;;16.90;99.90;;;;;;4952640;28;92534;-70
2022/06/23 04:10:43;;;;;;;13.50;11.57;;;17.00;99.80;;;;;;4938565;28;91633;-70
2022/06/23 04:13:21;;;;;;;14.52;12.00;;;16.90;99.50;;;;;;4936177;28;95769;-71
2022/06/23 04:15:49;;;;;;;15.63;12.80;;;16.80;99.60;;;;;;4936379;28;93710;-70
2022/06/23 04:18:21;;;;;;;14.93;13.35;;;16.70;99.70;;;;;;4936394;28;94874;-71
2022/06/23 04:20:55;;;;;;;15.32;12.98;;;16.70;99.70;;;;;;4937879;28;92354;-70
2022/06/23 04:23:39;;;;;;;15.15;13.55;;;16.70;99.70;;;;;;4937754;28;93339;-71
2022/06/23 04:26:18;;;;;;;12.80;11.25;;;16.70;99.60;;;;;;4936055;28;95689;-70
2022/06/23 04:28:53;;;;;;;14.05;12.50;;;16.70;99.70;;;;;;4919973;28;92991;-70
2022/06/23 04:31:42;;;;;;;15.32;12.88;;;16.60;99.80;;;;;;4937885;28;92340;-70
2022/06/23 04:34:28;;;;;;;15.18;13.02;;;16.60;99.80;;;;;;4937361;28;93250;-71
2022/06/23 04:36:56;;;;;;;14.43;12.05;;;16.60;99.90;;;;;;4937816;28;93050;-71
2022/06/23 04:39:43;;;;;;;15.07;13.48;;;16.50;99.90;;;;;;4920027;28;92524;-70
2022/06/23 04:42:29;;;;;;;14.32;11.77;;;16.50;99.90;;;;;;4952404;28;92364;-71
2022/06/23 04:45:19;;;;;;;13.45;12.05;;;16.50;99.90;;;;;;4935834;28;95474;-70
2022/06/23 04:47:46;;;;;;;15.57;12.75;;;16.50;99.90;;;;;;4936612;28;95604;-70
2022/06/23 04:50:29;;;;;;;12.82;11.43;;;16.50;99.90;;;;;;4937108;28;92333;-70
2022/06/23 04:52:58;;;;;;;17.00;12.98;;;16.50;99.90;;;;;;4936043;28;92508;-70
2022/06/23 04:55:30;;;;;;;14.95;12.55;;;16.50;99.90;;;;;;4935504;28;94891;-70
2022/06/23 04:58:06;;;;;;;16.35;12.32;;;16.60;99.90;;;;;;4935448;28;95689;-70
2022/06/23 05:00:42;;;;;;;12.77;11.45;;;16.70;99.90;;;;;;4936275;28;92766;-70
2022/06/23 05:03:18;;;;;;;12.80;11.50;;;16.70;99.90;;;;;;4936466;28;92195;-70
2022/06/23 05:05:54;;;;;;;15.07;13.68;;;16.80;99.90;;;;;;4935320;28;93186;-70
2022/06/23 05:08:26;;;;;;;15.68;13.98;;;16.90;99.90;;;;;;4919470;28;95603;-71
2022/06/23 05:11:07;;;;;;;16.20;12.68;;;17.00;99.90;;;;;;4934247;28;94846;-70
2022/06/23 05:13:41;;;;;;;12.52;11.23;;;17.10;99.90;;;;;;4935419;28;92445;-71
2022/06/23 05:16:30;;;;;;;18.13;11.45;;;17.20;99.90;;;;;;4937004;28;93237;-70
2022/06/23 05:19:05;;;;;;;14.43;12.00;;;17.30;99.80;;;;;;4935077;28;95671;-70
2022/06/23 05:21:46;;;;;;;13.00;11.10;;;17.30;99.80;;;;;;4936958;28;92427;-71
2022/06/23 05:24:24;;;;;;;12.77;11.13;;;17.60;99.60;;;;;;4936885;28;92495;-70
2022/06/23 05:26:54;;;;;;;13.02;11.27;;;17.50;99.50;;;;;;4936500;28;93285;-70
2022/06/23 05:29:24;;;;;;;12.70;10.60;;;17.70;99.50;;;;;;4935829;28;93093;-71
2022/06/23 05:31:55;;;;;;;11.60;10.50;;;17.90;99.30;;;;;;4935062;28;92473;-70
2022/06/23 05:34:30;;;;;;;13.07;11.73;;;18.10;99.10;;;;;;4918688;28;99316;-71
2022/06/23 05:37:25;;;;;;;12.63;11.32;;;18.30;99.00;;;;;;4933920;28;94818;-71
2022/06/23 05:40:13;;;;;;;12.68;11.43;;;18.50;98.50;;;;;;4934711;28;96404;-70
2022/06/23 05:42:46;;;;;;;12.10;10.88;;;18.60;98.30;;;;;;4936462;28;92435;-71
2022/06/23 05:45:26;;;;;;;11.18;10.13;;;18.80;98.30;;;;;;4935331;28;92529;-71
2022/06/23 05:47:54;;;;;;;13.05;11.88;;;18.90;97.90;;;;;;4934688;28;95708;-71
2022/06/23 05:50:40;;;;;;;11.82;10.82;;;19.10;97.70;;;;;;4934643;28;100775;-71
2022/06/23 05:53:18;;;;;;;11.95;10.32;;;19.30;97.60;;;;;;4936081;28;92379;-70
2022/06/23 05:55:51;;;;;;;11.82;10.57;;;19.30;97.50;;;;;;4936948;28;92733;-71
2022/06/23 05:58:46;;;;;;;11.63;10.52;;;19.50;97.20;;;;;;4936439;28;93301;-71
2022/06/23 06:01:21;;;;;;;11.68;10.60;;;19.50;97.00;;;;;;4936296;28;92466;-70
2022/06/23 06:04:18;;;;;;;11.38;10.30;;;19.60;97.00;;;;;;4935252;28;94988;-71
2022/06/23 06:06:45;;;;;;;11.10;10.10;;;19.80;96.70;;;;;;4936450;28;92423;-71
2022/06/23 06:09:35;;;;;;;10.55;9.13;;;19.80;96.80;;;;;;4918564;28;95756;-71
2022/06/23 06:12:12;;;;;;;10.20;9.10;;;20.00;96.60;;;;;;4934962;28;95926;-70
2022/06/23 06:14:49;;;;;;;10.65;9.65;;;20.00;96.50;;;;;;4942915;28;92530;-70
2022/06/23 06:17:20;;;;;;;13.32;10.80;;;20.10;96.50;;;;;;4941718;28;92550;-71
2022/06/23 06:19:49;;;;;;;11.40;10.30;;;20.10;96.40;;;;;;4942449;28;93114;-70
2022/06/23 06:22:55;;;;;;;11.65;10.07;;;20.10;96.10;;;;;;4941273;28;93114;-71
2022/06/23 06:25:29;;;;;;;12.00;10.77;;;20.20;95.90;;;;;;4940565;28;92556;-71
2022/06/23 06:28:01;;;;;;;14.20;12.88;;;20.10;96.00;;;;;;4942399;28;92464;-70
2022/06/23 06:30:36;;;;;;;9.73;8.75;;;20.10;96.20;;;;;;4941044;28;95656;-71
2022/06/23 06:33:04;;;;;;;13.00;11.70;;;20.10;96.20;;;;;;4941352;28;95402;-71
2022/06/23 06:35:38;;;;;;;10.77;9.50;;;20.20;96.60;;;;;;4941378;28;92704;-71
2022/06/23 06:38:15;;;;;;;11.90;10.80;;;20.30;96.10;;;;;;4942754;28;92429;-71
2022/06/23 06:40:47;;;;;;;10.43;9.43;;;20.30;96.10;;;;;;4940784;28;95711;-71
2022/06/23 06:43:18;;;;;;;10.53;9.50;;;20.40;96.10;;;;;;4924781;28;95466;-71
2022/06/23 06:45:46;;;;;;;9.40;8.60;;;20.40;96.10;;;;;;4942841;28;92493;-71
2022/06/23 06:48:23;;;;;;;10.68;9.68;;;20.50;95.90;;;;;;4942725;28;91740;-70
2022/06/23 06:51:04;;;;;;;9.88;8.98;;;20.70;95.60;;;;;;4941000;28;95668;-71
2022/06/23 06:53:40;;;;;;;9.85;8.82;;;20.90;95.50;;;;;;4941455;28;92670;-70
2022/06/23 06:56:26;;;;;;;10.50;9.40;;;21.10;94.90;;;;;;4941413;28;94854;-71
2022/06/23 06:59:05;;;;;;;9.93;9.02;;;21.30;94.70;;;;;;4942783;28;92689;-71
2022/06/23 07:01:36;;;;;;;10.73;9.65;;;21.40;94.30;;;;;;4942544;28;93249;-71
2022/06/23 07:04:03;;;;;;;10.52;9.23;;;21.40;94.40;;;;;;4941781;28;93138;-70
2022/06/23 07:06:34;;;;;;;9.25;8.35;;;21.50;94.40;;;;;;4957729;28;92534;-71
2022/06/23 07:09:14;;;;;;;10.20;9.30;;;21.60;94.30;;;;;;4941258;28;92576;-71
2022/06/23 07:12:10;;;;;;;10.95;8.88;;;21.60;93.90;;;;;;4941150;28;93322;-71
2022/06/23 07:15:05;;;;;;;11.05;9.63;;;21.70;93.90;;;;;;4942378;28;93217;-71
2022/06/23 07:17:44;;;;;;;10.65;8.25;;;21.70;93.90;;;;;;4942607;28;92514;-71
2022/06/23 07:20:19;;;;;;;9.43;8.32;;;21.70;93.70;;;;;;4940728;28;92476;-71
2022/06/23 07:22:54;;;;;;;10.77;8.55;;;21.70;93.70;;;;;;4939721;28;95347;-71
2022/06/23 07:25:29;;;;;;;8.75;7.95;;;21.70;93.70;;;;;;4937413;28;97896;-71
2022/06/23 07:28:22;;;;;;;9.90;8.60;;;21.80;93.60;;;;;;4937921;28;92373;-71
2022/06/23 07:31:01;;;;;;;9.23;7.35;;;21.90;93.10;;;;;;4939079;28;92376;-71
2022/06/23 07:33:41;;;;;;;9.68;8.68;;;21.90;93.10;;;;;;4938963;28;93300;-71
2022/06/23 07:36:41;;;;;;;9.75;8.82;;;22.00;93.20;;;;;;4938896;28;93360;-71
2022/06/23 07:39:21;;;;;;;9.73;8.80;;;22.00;92.90;;;;;;4931777;28;92555;-71
2022/06/23 07:42:05;;;;;;;8.88;7.43;;;22.10;93.00;;;;;;4939407;28;91688;-71
2022/06/23 07:44:43;;;;;;;10.20;8.35;;;22.20;92.90;;;;;;4938742;28;92438;-71
2022/06/23 07:47:10;;;;;;;8.60;7.80;;;22.20;92.70;;;;;;4937310;28;92941;-71
2022/06/23 07:49:38;;;;;;;8.68;7.82;;;22.30;93.00;;;;;;4936114;28;94819;-71
2022/06/23 07:52:05;;;;;;;8.45;7.65;;;22.40;92.90;;;;;;4938165;28;99870;-71
2022/06/23 07:54:35;;;;;;;9.55;7.90;;;22.50;92.90;;;;;;4938418;28;94147;-71
2022/06/23 07:57:03;;;;;;;9.43;7.18;;;22.60;92.70;;;;;;4936786;28;92838;-71
2022/06/23 07:59:39;;;;;;;8.68;7.88;;;22.70;92.60;;;;;;4937149;28;92443;-71
2022/06/23 08:02:18;;;;;;;9.63;8.25;;;22.80;92.20;;;;;;4938502;28;92496;-71
2022/06/23 08:04:51;;;;;;;10.15;8.52;;;22.90;92.30;;;;;;4938092;28;94999;-71
2022/06/23 08:07:28;;;;;;;7.40;6.65;;;23.00;92.20;;;;;;4937344;28;93101;-71
2022/06/23 08:10:05;;;;;;;8.38;7.03;;;23.20;91.50;;;;;;4937480;28;92429;-71
2022/06/23 08:12:55;;;;;;;7.65;6.53;;;23.70;90.80;;;;;;4938434;28;92367;-71
2022/06/23 08:18:26;;;;;;;6.30;5.70;;;26.10;88.30;;;;;;4938070;28;94223;-71
2022/06/23 08:21:03;;;;;;;6.07;5.47;;;27.80;84.50;;;;;;4937029;28;92450;-71
2022/06/23 08:23:38;;;;;;;6.00;5.32;;;29.30;77.30;;;;;;4936889;28;92503;-71
2022/06/23 08:26:08;;;;;;;5.50;4.95;;;30.60;72.50;;;;;;4920415;28;95646;-72
2022/06/23 08:28:35;;;;;;;6.53;5.90;;;31.60;69.70;;;;;;4936685;28;94091;-71
2022/06/23 08:31:04;;;;;;;5.78;5.18;;;32.70;65.30;;;;;;4938188;28;92439;-72
2022/06/23 08:33:33;;;;;;;5.18;4.72;;;33.70;61.40;;;;;;4938189;28;91701;-72
2022/06/23 08:36:09;;;;;;;7.25;5.10;;;34.40;58.20;;;;;;4936498;28;95321;-72
2022/06/23 08:38:50;;;;;;;5.25;4.75;;;35.30;54.10;;;;;;4938028;28;93255;-72
2022/06/23 08:41:40;;;;;;;5.83;5.30;;;36.00;52.50;;;;;;4935686;28;94854;-72
2022/06/23 08:44:56;;;;;;;5.43;4.18;;;36.70;49.90;;;;;;4937959;28;92817;-72
2022/06/23 08:47:35;;;;;;;4.95;4.55;;;37.10;46.90;;;;;;4936483;28;93324;-72
2022/06/23 08:50:27;;;;;;;5.80;4.85;;;37.00;47.00;;;;;;4936290;28;94185;-72
2022/06/23 08:53:23;;;;;;;4.50;4.20;;;37.80;45.10;;;;;;4936617;28;92393;-72
2022/06/23 08:56:02;;;;;;;5.43;4.50;;;38.10;44.10;;;;;;4918598;28;92549;-72
2022/06/23 08:58:50;;;;;;;4.88;4.38;;;38.10;42.80;;;;;;4937412;28;93290;-72
2022/06/23 09:01:20;;;;;;;5.00;4.30;;;38.20;42.40;;;;;;4937748;28;92921;-72
2022/06/23 09:04:12;;;;;;;5.85;4.90;;;38.00;42.60;;;;;;4936360;28;92427;-72
2022/06/23 09:06:57;;;;;;;5.65;3.80;;;38.30;41.30;;;;;;4936724;28;92690;-72
2022/06/23 09:09:32;;;;;;;5.93;3.78;;;38.10;41.80;;;;;;4935949;28;95508;-72
2022/06/23 09:12:38;;;;;;;5.70;4.22;;;37.70;41.90;;;;;;4935830;28;96677;-72
2022/06/23 09:15:35;;;;;;;8.57;4.68;;;37.40;41.70;;;;;;4937262;28;92343;-72
2022/06/23 09:18:36;;;;;;;4.50;3.35;;;36.80;42.40;;;;;;4937657;28;92317;-72
2022/06/23 09:21:23;;;;;;;4.07;3.50;;;36.00;42.80;;;;;;4937351;28;93260;-72
2022/06/23 09:24:24;;;;;;;7.38;3.92;;;35.00;44.20;;;;;;4937284;28;93177;-71
2022/06/23 09:26:59;;;;;;;4.88;4.25;;;34.10;47.20;;;;;;4936099;28;92452;-71
2022/06/23 09:29:41;;;;;;;4.80;3.80;;;33.20;48.30;;;;;;4937153;28;92170;-71
2022/06/23 09:32:41;;;;;;;6.80;4.00;;;32.60;48.60;;;;;;4936100;28;92484;-71
2022/06/23 09:35:20;;;;;;;4.22;3.78;;;32.00;50.20;;;;;;4937238;28;92882;-71
2022/06/23 09:37:59;;;;;;;6.60;3.90;;;31.40;50.40;;;;;;4934949;28;94911;-71
2022/06/23 09:40:59;;;;;;;5.53;4.70;;;30.90;50.50;;;;;;4935772;28;92515;-71
2022/06/23 09:43:57;;;;;;;4.78;3.60;;;30.60;51.20;;;;;;4937014;28;93266;-71
2022/06/23 09:46:55;;;;;;;4.10;3.72;;;30.30;51.10;;;;;;4936149;28;92978;-71
2022/06/23 09:49:28;;;;;;;3.50;3.20;;;30.00;52.90;;;;;;4938394;28;92450;-71
2022/06/23 09:52:08;;;;;;;4.93;4.43;;;29.80;53.60;;;;;;4955926;28;92472;-71
2022/06/23 09:55:05;;;;;;;4.50;4.10;;;29.60;53.60;;;;;;4954821;28;93191;-71
2022/06/23 09:57:53;;;;;;;4.25;3.85;;;29.40;54.00;;;;;;4956494;28;92913;-71
2022/06/23 10:00:52;;;;;;;3.47;3.15;;;29.30;54.80;;;;;;4956319;28;92448;-71
2022/06/23 10:03:44;;;;;;;4.07;3.67;;;29.30;54.80;;;;;;4938421;28;92575;-71
2022/06/23 10:06:53;;;;;;;3.20;2.67;;;29.30;53.70;;;;;;4954805;28;95570;-71
2022/06/23 10:09:52;;;;;;;6.60;3.97;;;29.30;54.80;;;;;;4954030;28;101813;-71
2022/06/23 10:12:43;;;;;;;5.38;3.75;;;29.30;54.60;;;;;;4956132;28;92512;-71
2022/06/23 10:15:36;;;;;;;3.20;2.80;;;29.30;54.00;;;;;;4956552;28;92891;-71
2022/06/23 10:18:26;;;;;;;4.35;3.35;;;29.30;52.90;;;;;;4956055;28;93357;-71
2022/06/23 10:21:31;;;;;;;4.65;3.00;;;29.30;53.20;;;;;;4954859;28;93079;-71
2022/06/23 10:24:08;;;;;;;2.83;2.53;;;29.30;53.00;;;;;;4954533;28;92438;-71
2022/06/23 10:26:50;;;;;;;5.57;3.45;;;29.20;52.40;;;;;;4956416;28;92037;-71
2022/06/23 10:29:35;;;;;;;3.88;3.20;;;29.30;51.10;;;;;;4938090;28;96746;-71
2022/06/23 10:32:07;;;;;;;3.80;3.50;;;29.30;50.40;;;;;;4954463;28;95513;-71
2022/06/23 10:34:56;;;;;;;13.13;3.53;;;29.40;50.20;;;;;;4954567;28;94874;-71
2022/06/23 10:37:50;;;;;;;3.50;3.30;;;29.40;50.40;;;;;;4954229;28;92466;-71
2022/06/23 10:40:30;;;;;;;4.50;2.70;;;29.60;50.20;;;;;;4954284;28;95830;-71
2022/06/23 10:43:13;;;;;;;3.92;2.72;;;29.70;50.00;;;;;;4954167;28;95519;-71
2022/06/23 10:45:56;;;;;;;3.38;2.33;;;29.60;49.20;;;;;;4954282;28;92969;-71
2022/06/23 10:48:44;;;;;;;3.35;3.05;;;29.70;49.80;;;;;;4954177;28;92379;-71
2022/06/23 10:51:36;;;;;;;3.50;2.30;;;29.70;49.30;;;;;;4953939;28;94443;-71
2022/06/23 10:54:37;;;;;;;3.95;3.65;;;29.70;48.90;;;;;;4954649;28;95480;-71
2022/06/23 10:57:22;;;;;;;2.90;2.70;;;29.80;48.20;;;;;;4954739;28;93079;-71
2022/06/23 10:59:59;;;;;;;2.40;2.20;;;29.70;48.20;;;;;;4956389;28;93035;-71
2022/06/23 11:02:35;;;;;;;3.05;2.85;;;29.70;48.40;;;;;;4956007;28;98085;-71
2022/06/23 11:05:39;;;;;;;3.53;3.22;;;29.80;48.30;;;;;;4956613;28;98110;-71
2022/06/23 11:08:31;;;;;;;2.50;2.30;;;29.90;48.50;;;;;;4957646;28;92434;-71
2022/06/23 11:11:12;;;;;;;5.05;3.08;;;30.00;49.10;;;;;;4958886;28;92555;-71
2022/06/23 11:14:11;;;;;;;3.75;3.45;;;30.00;48.70;;;;;;4957254;28;95882;-71
2022/06/23 11:16:57;;;;;;;3.50;2.70;;;30.20;48.70;;;;;;4958738;28;93077;-71
2022/06/23 11:20:02;;;;;;;3.17;2.67;;;30.20;48.90;;;;;;4958961;28;92472;-71
2022/06/23 11:22:44;;;;;;;3.70;3.30;;;30.30;48.80;;;;;;4957378;28;91730;-71
2022/06/23 11:25:26;;;;;;;5.03;2.72;;;30.40;48.40;;;;;;4958810;28;92534;-71
2022/06/23 11:28:26;;;;;;;2.78;2.58;;;30.50;49.20;;;;;;4956962;28;95442;-71
2022/06/23 11:31:24;;;;;;;4.40;2.83;;;30.60;49.10;;;;;;4957662;28;94817;-71
2022/06/23 11:34:03;;;;;;;4.45;3.78;;;30.60;47.90;;;;;;4950081;28;92702;-71
2022/06/23 11:36:51;;;;;;;4.10;2.40;;;30.80;48.60;;;;;;4958399;28;93363;-71
2022/06/23 11:39:36;;;;;;;3.85;3.58;;;30.80;48.60;;;;;;4936679;28;93398;-71
2022/06/23 11:42:24;;;;;;;4.15;3.75;;;30.80;47.90;;;;;;4958521;28;92495;-71
2022/06/23 11:45:24;;;;;;;3.05;2.75;;;30.90;48.40;;;;;;4958252;28;92489;-71
2022/06/23 11:48:09;;;;;;;3.97;3.58;;;31.00;47.50;;;;;;4958200;28;93152;-71
2022/06/23 11:51:00;;;;;;;2.40;2.20;;;31.00;47.60;;;;;;4958147;28;93048;-71
2022/06/23 11:53:56;;;;;;;3.60;3.00;;;31.10;47.80;;;;;;4958030;28;92492;-71
2022/06/23 11:56:54;;;;;;;4.10;3.53;;;31.20;47.70;;;;;;4958297;28;92330;-71
2022/06/23 11:59:46;;;;;;;2.60;2.40;;;31.30;47.40;;;;;;4957000;28;94954;-71
2022/06/23 12:03:11;;;;;;;3.15;2.25;;;31.30;47.50;;;;;;4957904;28;94673;-71
2022/06/23 12:05:57;;;;;;;3.03;2.83;;;31.40;46.00;;;;;;4956069;28;93399;-71
2022/06/23 12:08:35;;;;;;;4.65;2.70;;;31.40;46.30;;;;;;4956596;28;92523;-71
2022/06/23 12:11:03;;;;;;;7.00;3.67;;;31.50;46.50;;;;;;4956031;28;93238;-71
2022/06/23 12:13:33;;;;;;;3.22;2.92;;;31.50;46.10;;;;;;4956289;28;93984;-71
2022/06/23 12:16:00;;;;;;;4.47;3.55;;;31.60;46.50;;;;;;4957826;28;92392;-71
2022/06/23 12:18:54;;;;;;;3.17;2.60;;;31.70;45.80;;;;;;4956680;28;92261;-71
2022/06/23 12:21:46;;;;;;;4.00;3.50;;;31.90;45.70;;;;;;4957721;28;93352;-71
2022/06/23 12:24:25;;;;;;;4.70;3.08;;;31.90;46.00;;;;;;4957920;28;92918;-71
2022/06/23 12:27:29;;;;;;;4.32;2.30;;;32.00;46.20;;;;;;4956293;28;94886;-71
2022/06/23 12:30:05;;;;;;;2.70;2.50;;;32.10;46.50;;;;;;4956254;28;92569;-72
2022/06/23 12:32:47;;;;;;;3.55;2.83;;;32.10;46.30;;;;;;4956074;28;95813;-71
2022/06/23 12:35:48;;;;;;;3.70;2.50;;;32.30;46.20;;;;;;4955932;28;95713;-72
2022/06/23 12:38:19;;;;;;;3.28;3.05;;;32.40;45.00;;;;;;4957875;28;92916;-71
2022/06/23 12:41:00;;;;;;;4.13;3.65;;;32.40;44.40;;;;;;4957475;28;92598;-72
2022/06/23 12:44:08;;;;;;;3.97;2.30;;;32.50;44.30;;;;;;4955675;28;95975;-71
2022/06/23 12:46:38;;;;;;;3.58;2.83;;;32.60;44.10;;;;;;4919579;28;93039;-71
2022/06/23 12:49:04;;;;;;;6.10;3.42;;;32.60;45.50;;;;;;4964808;28;92513;-71
2022/06/23 12:51:37;;;;;;;10.95;3.95;;;32.60;44.20;;;;;;4957162;28;92431;-72
2022/06/23 12:54:51;;;;;;;3.25;2.30;;;32.60;44.20;;;;;;4955919;28;95562;-71
2022/06/23 12:57:37;;;;;;;3.72;3.42;;;32.60;43.80;;;;;;4957158;28;95453;-71
2022/06/23 13:00:05;;;;;;;3.00;2.70;;;32.70;43.40;;;;;;4957228;28;92480;-71
2022/06/23 13:02:56;;;;;;;3.28;2.17;;;32.60;43.70;;;;;;4957089;28;92467;-71
2022/06/23 13:05:34;;;;;;;3.78;3.45;;;32.80;44.30;;;;;;4956845;28;93273;-71
2022/06/23 13:08:20;;;;;;;3.42;3.13;;;32.90;44.40;;;;;;4956851;28;93086;-72
2022/06/23 13:11:13;;;;;;;2.55;2.35;;;33.00;44.80;;;;;;4956829;28;92453;-71
2022/06/23 13:13:47;;;;;;;;;;;33.10;43.80;;;;;;4954956;28;92347;-71
2022/06/23 13:16:22;;;;;;;3.33;2.90;;;33.00;44.40;;;;;;4958172;28;93166;-71
2022/06/23 13:19:01;;;;;;;5.53;2.58;;;33.20;44.00;;;;;;4956573;28;92890;-71
2022/06/23 13:21:34;;;;;;;3.00;2.10;;;33.40;43.80;;;;;;4954512;28;94805;-71
2022/06/23 13:24:19;;;;;;;3.72;3.38;;;33.40;43.50;;;;;;4954401;28;93223;-71
2022/06/23 13:27:15;;;;;;;5.53;3.13;;;33.40;42.80;;;;;;4956609;28;93358;-72
2022/06/23 13:29:56;;;;;;;3.67;3.38;;;33.40;42.40;;;;;;4955685;28;93096;-72
2022/06/23 13:32:38;;;;;;;4.50;3.47;;;33.40;43.00;;;;;;4957036;28;92502;-72
2022/06/23 13:35:05;;;;;;;2.92;2.72;;;33.50;41.70;;;;;;4955183;28;92440;-72
2022/06/23 13:37:53;;;;;;;;;;;33.40;42.20;;;;;;4955939;28;93252;-71
2022/06/23 13:40:35;;;;;;;3.90;3.58;;;33.40;42.20;;;;;;4989558;28;95019;-71
2022/06/23 13:43:09;;;;;;;2.83;2.63;;;33.50;41.90;;;;;;4955646;28;92773;-71
2022/06/23 13:45:58;;;;;;;3.42;3.17;;;33.50;41.40;;;;;;4955141;28;92500;-72
2022/06/23 13:48:33;;;;;;;2.70;2.50;;;33.50;42.10;;;;;;4955208;28;94974;-71
2022/06/23 13:51:08;;;;;;;2.72;2.53;;;33.50;42.40;;;;;;4955990;28;95440;-71
2022/06/23 13:53:35;;;;;;;5.32;2.88;;;33.60;41.70;;;;;;4956663;28;92460;-72
2022/06/23 13:56:02;;;;;;;2.70;2.50;;;33.50;41.90;;;;;;4954687;28;92524;-71
2022/06/23 13:58:54;;;;;;;4.00;2.40;;;33.60;41.40;;;;;;4954800;28;94170;-71
2022/06/23 14:01:41;;;;;;;4.60;3.23;;;33.70;42.80;;;;;;4956340;28;93076;-71
2022/06/23 14:04:25;;;;;;;3.63;3.30;;;33.60;41.10;;;;;;4954325;28;92388;-72